Aimwell, Louisiana
Current Conditions -  °F | °C
As of 5:53 AM on Thursday 29 Jan 2015 (Local Time) from KESF Reporting Station
Haze Haze  
Wind Chill: 56°   Ceiling: 200
Heat Index: 56°   Visibility: 2.5mi
Dew Point: 54°   Wind: 6mph
Humidity: 93%   Direction: 210°SSW
Pressure: 30.17"   Gusts: NA
Location:  31.78°N, 91.99°W
Report Text: KESF 291153Z AUTO 21005KT 2 1/2SM BR OVC002 13/12 A3017 RMK AO2 SLP215 T01330122 10133 20078 58003
Loading
Personal Weather Stations






























Interactive Weather Map New forecast layout! Learn more

10-Day Weather Forecast

Advertisements
Track Severe Weather on mobile